AirNav   Everest Fuels
 
 358 users online  

SC87 Avinger Field Airport
Vance, South Carolina, USA

GOING TO VANCE?


FAA INFORMATION EFFECTIVE 18 JUNE 2020

Location

FAA Identifier: SC87
Lat/Long: 33-26-34.0000N 080-27-20.0000W
33-26.566667N 080-27.333333W
33.4427778,-80.4555556
(estimated)
Elevation: 138 ft. / 42 m (estimated)
Variation: 05W (1990)
From city: 1 mile NW of VANCE, SC
Time zone: UTC -4 (UTC -5 during Standard Time)
Zip code: 29163

Airport Operations

Airport use: Private use. Permission required prior to landing
Activation date: 04/1993
Control tower: no
ARTCC: JACKSONVILLE CENTER
FSS: ANDERSON FLIGHT SERVICE STATION
Attendance: UNATNDD
Segmented circle: no

Airport Communications

WX AWOS-3 at MNI (15 nm NE): 120.175 (803-478-6060)

Nearby radio navigation aids

VOR radial/distance  VOR name  Freq  Var
VANr196/2.0VANCE VORTAC110.4006W
MMTr157/33.7MC ENTIRE VORTAC113.2008W
CAEr132/38.9COLUMBIA VORTAC114.7002W
CHSr332/39.0CHARLESTON VORTAC113.5005W

 
NDB name  Hdg/Dist  Freq  Var  ID
MANNING241/15.238106WMNI -- -. ..
DORCHESTER COUNTY346/24.636507WDYB -.. -.-- -...
SUMTER195/33.225207WSMS ... -- ...

Airport Services

Runway Information

Runway 13/31

Dimensions: 3000 x 100 ft. / 914 x 30 m
Surface: turf
RUNWAY 13  RUNWAY 31
Traffic pattern: leftleft
Obstructions: 100 ft. trees, 1500 ft. from runway100 ft. trees, 1500 ft. from runway

Airport Ownership and Management from official FAA records

Ownership: Privately-owned
Owner: IRA D AVINGER SR
ROUTE 1 BOX 822
VANCE, SC 29163
Phone 803-492-7839
Manager: IRA D AVINGER SR
ROUTE 1 BOX 822
VANCE, SC 29163
Phone 803-492-7839

Airport Operational Statistics

Aircraft based on the field: 2
Single engine airplanes: 2
    

Additional Remarks

FOR CD CTC SHAW APCH AT 803-895-4884, WHEN APCH CLSD CTC JACKSONVILLE ARTCC AT 904-845-1592.

Instrument Procedures

There are no published instrument procedures at SC87.

Some nearby airports with instrument procedures:

6J2 - St George Airport (15 nm S)
KMNI - Santee Cooper Regional Airport (15 nm NE)
KOGB - Orangeburg Municipal Airport (20 nm W)
KDYB - Summerville Airport (24 nm S)
KMKS - Berkeley County Airport (26 nm SE)
 
Loc | Ops | Rwys | IFR | FBO | Links
Com | Nav | Svcs | Stats | Notes
Area around SC87 (Avinger Field Airport)
 
Road maps at: MapQuest Bing Google
 
Aerial photo
No photo
 
Sectional chart

 
Airport distance calculator
Flying to Avinger Field Airport? Find the distance to fly.

From to SC87

Sunrise and sunset
Times for 13-Jul-2020
 Local
(UTC-4)
 Zulu
(UTC)
Morning civil twilight05:5509:55
Sunrise06:2310:23
Sunset20:3200:32
Evening civil twilight21:0001:00

Current date and time
Zulu (UTC)  13-Jul-2020 06:20:07
Local (UTC-4)  13-Jul-2020 02:20:07
 
METAR
KOGB 
20nm W 
130553Z AUTO 00000KT 10SM CLR 24/23 A2983 RMK AO2 SLP098 T02440233 10306 20244 50002
KDYB 
24nm S 
130555Z AUTO 00000KT 10SM SCT060 BKN075 26/25 A2983 RMK AO2
KMKS 
26nm SE 
130555Z AUTO 00000KT 10SM CLR 25/25 A2983 RMK AO2
TAF
KOGB 
20nm W 
130526Z 1306/1406 VRB03KT P6SM SCT250 FM131500 24005KT P6SM SCT050 FM131800 24007KT P6SM VCSH BKN050 FM140100 VRB03KT P6SM SCT070
NOTAMs
Click for the latest NOTAMs
NOTAMs are issued by the DoD/FAA and will open in a separate window not controlled by AirNav.

 

 
 

Would you like to see your business listed on this page?

 If your business provides an interesting product or service to pilots, flight crews, aircraft, or users of the Avinger Field Airport, you should consider listing it here.  To start the listing process, click on the button below
 
Add a business
 

Other Pages about Avinger Field Airport

Update a link
 
Copyright © AirNav, LLC. All rights reserved. Privacy Policy  Contact